sensor_id;sensor_type;location;lat;lon;timestamp;P1;durP1;ratioP1;P2;durP2;ratioP2
28086;SDS011;15392;48.912;8.380;2023-12-14T00:02:37;0.32;;;0.32;;
28086;SDS011;15392;48.912;8.380;2023-12-14T00:05:23;0.30;;;0.30;;
28086;SDS011;15392;48.912;8.380;2023-12-14T00:08:09;0.50;;;0.50;;
28086;SDS011;15392;48.912;8.380;2023-12-14T00:10:56;0.50;;;0.50;;
28086;SDS011;15392;48.912;8.380;2023-12-14T00:13:42;0.38;;;0.38;;
28086;SDS011;15392;48.912;8.380;2023-12-14T00:16:28;0.30;;;0.30;;
28086;SDS011;15392;48.912;8.380;2023-12-14T00:19:14;0.40;;;0.40;;
28086;SDS011;15392;48.912;8.380;2023-12-14T00:22:00;0.40;;;0.40;;
28086;SDS011;15392;48.912;8.380;2023-12-14T00:24:46;0.40;;;0.40;;
28086;SDS011;15392;48.912;8.380;2023-12-14T00:27:32;0.30;;;0.30;;
28086;SDS011;15392;48.912;8.380;2023-12-14T00:30:21;0.40;;;0.40;;
28086;SDS011;15392;48.912;8.380;2023-12-14T00:33:07;0.50;;;0.50;;
28086;SDS011;15392;48.912;8.380;2023-12-14T00:35:53;0.43;;;0.43;;
28086;SDS011;15392;48.912;8.380;2023-12-14T00:38:39;0.45;;;0.45;;
28086;SDS011;15392;48.912;8.380;2023-12-14T00:41:25;0.30;;;0.30;;
28086;SDS011;15392;48.912;8.380;2023-12-14T00:44:12;0.40;;;0.40;;
28086;SDS011;15392;48.912;8.380;2023-12-14T00:46:58;0.45;;;0.45;;
28086;SDS011;15392;48.912;8.380;2023-12-14T00:49:45;0.40;;;0.40;;
28086;SDS011;15392;48.912;8.380;2023-12-14T00:52:31;0.30;;;0.30;;
28086;SDS011;15392;48.912;8.380;2023-12-14T00:55:17;0.50;;;0.50;;
28086;SDS011;15392;48.912;8.380;2023-12-14T00:58:06;0.47;;;0.47;;
28086;SDS011;15392;48.912;8.380;2023-12-14T01:00:52;0.40;;;0.40;;
28086;SDS011;15392;48.912;8.380;2023-12-14T01:03:39;0.45;;;0.45;;
28086;SDS011;15392;48.912;8.380;2023-12-14T01:06:25;0.30;;;0.30;;
28086;SDS011;15392;48.912;8.380;2023-12-14T01:09:11;0.30;;;0.30;;
28086;SDS011;15392;48.912;8.380;2023-12-14T01:11:57;0.43;;;0.43;;
28086;SDS011;15392;48.912;8.380;2023-12-14T01:14:43;0.20;;;0.20;;
28086;SDS011;15392;48.912;8.380;2023-12-14T01:17:29;0.20;;;0.20;;
28086;SDS011;15392;48.912;8.380;2023-12-14T01:20:15;0.30;;;0.30;;
28086;SDS011;15392;48.912;8.380;2023-12-14T01:23:01;0.28;;;0.28;;
28086;SDS011;15392;48.912;8.380;2023-12-14T01:25:47;0.38;;;0.38;;
28086;SDS011;15392;48.912;8.380;2023-12-14T01:28:33;0.30;;;0.30;;
28086;SDS011;15392;48.912;8.380;2023-12-14T01:31:19;0.30;;;0.30;;
28086;SDS011;15392;48.912;8.380;2023-12-14T01:34:08;0.20;;;0.20;;
28086;SDS011;15392;48.912;8.380;2023-12-14T01:36:57;0.20;;;0.20;;
28086;SDS011;15392;48.912;8.380;2023-12-14T01:39:43;0.30;;;0.30;;
28086;SDS011;15392;48.912;8.380;2023-12-14T01:42:29;0.20;;;0.20;;
28086;SDS011;15392;48.912;8.380;2023-12-14T01:45:15;0.25;;;0.25;;
28086;SDS011;15392;48.912;8.380;2023-12-14T01:48:01;0.20;;;0.20;;
28086;SDS011;15392;48.912;8.380;2023-12-14T01:50:48;0.40;;;0.40;;
28086;SDS011;15392;48.912;8.380;2023-12-14T01:53:34;0.20;;;0.20;;
28086;SDS011;15392;48.912;8.380;2023-12-14T01:56:20;0.50;;;0.30;;
28086;SDS011;15392;48.912;8.380;2023-12-14T01:59:06;0.30;;;0.30;;
28086;SDS011;15392;48.912;8.380;2023-12-14T02:01:52;0.20;;;0.20;;
28086;SDS011;15392;48.912;8.380;2023-12-14T02:04:41;0.32;;;0.32;;
28086;SDS011;15392;48.912;8.380;2023-12-14T02:07:28;0.40;;;0.40;;
28086;SDS011;15392;48.912;8.380;2023-12-14T02:10:14;0.20;;;0.20;;
28086;SDS011;15392;48.912;8.380;2023-12-14T02:13:01;0.30;;;0.30;;
28086;SDS011;15392;48.912;8.380;2023-12-14T02:15:48;0.50;;;0.50;;
28086;SDS011;15392;48.912;8.380;2023-12-14T02:18:38;0.40;;;0.40;;
28086;SDS011;15392;48.912;8.380;2023-12-14T02:21:24;0.40;;;0.40;;
28086;SDS011;15392;48.912;8.380;2023-12-14T02:24:11;0.40;;;0.40;;
28086;SDS011;15392;48.912;8.380;2023-12-14T02:26:57;0.40;;;0.40;;
28086;SDS011;15392;48.912;8.380;2023-12-14T02:29:43;0.60;;;0.60;;
28086;SDS011;15392;48.912;8.380;2023-12-14T02:32:31;0.50;;;0.50;;
28086;SDS011;15392;48.912;8.380;2023-12-14T02:35:17;0.40;;;0.40;;
28086;SDS011;15392;48.912;8.380;2023-12-14T02:38:03;0.55;;;0.55;;
28086;SDS011;15392;48.912;8.380;2023-12-14T02:40:49;0.40;;;0.40;;
28086;SDS011;15392;48.912;8.380;2023-12-14T02:43:38;0.95;;;0.68;;
28086;SDS011;15392;48.912;8.380;2023-12-14T02:46:25;0.40;;;0.40;;
28086;SDS011;15392;48.912;8.380;2023-12-14T02:49:11;0.43;;;0.43;;
28086;SDS011;15392;48.912;8.380;2023-12-14T02:51:57;0.40;;;0.40;;
28086;SDS011;15392;48.912;8.380;2023-12-14T02:54:43;0.40;;;0.40;;
28086;SDS011;15392;48.912;8.380;2023-12-14T02:57:29;0.70;;;0.70;;
28086;SDS011;15392;48.912;8.380;2023-12-14T03:00:15;0.40;;;0.40;;
28086;SDS011;15392;48.912;8.380;2023-12-14T03:03:02;0.47;;;0.47;;
28086;SDS011;15392;48.912;8.380;2023-12-14T03:05:48;0.50;;;0.50;;
28086;SDS011;15392;48.912;8.380;2023-12-14T03:08:34;0.70;;;0.70;;
28086;SDS011;15392;48.912;8.380;2023-12-14T03:11:21;0.60;;;0.60;;
28086;SDS011;15392;48.912;8.380;2023-12-14T03:14:11;0.50;;;0.50;;
28086;SDS011;15392;48.912;8.380;2023-12-14T03:16:57;0.60;;;0.60;;
28086;SDS011;15392;48.912;8.380;2023-12-14T03:19:43;0.93;;;0.93;;
28086;SDS011;15392;48.912;8.380;2023-12-14T03:22:29;0.70;;;0.70;;
28086;SDS011;15392;48.912;8.380;2023-12-14T03:25:15;0.70;;;0.70;;
28086;SDS011;15392;48.912;8.380;2023-12-14T03:28:01;0.63;;;0.63;;
28086;SDS011;15392;48.912;8.380;2023-12-14T03:30:47;0.75;;;0.68;;
28086;SDS011;15392;48.912;8.380;2023-12-14T03:33:33;0.70;;;0.70;;
28086;SDS011;15392;48.912;8.380;2023-12-14T03:36:19;0.70;;;0.70;;
28086;SDS011;15392;48.912;8.380;2023-12-14T03:39:15;0.68;;;0.68;;
28086;SDS011;15392;48.912;8.380;2023-12-14T03:42:17;0.70;;;0.70;;
28086;SDS011;15392;48.912;8.380;2023-12-14T03:45:03;0.65;;;0.65;;
28086;SDS011;15392;48.912;8.380;2023-12-14T03:47:50;0.52;;;0.52;;
28086;SDS011;15392;48.912;8.380;2023-12-14T03:50:36;0.52;;;0.52;;
28086;SDS011;15392;48.912;8.380;2023-12-14T03:53:22;0.70;;;0.70;;
28086;SDS011;15392;48.912;8.380;2023-12-14T03:56:08;0.70;;;0.70;;
28086;SDS011;15392;48.912;8.380;2023-12-14T03:58:54;0.43;;;0.43;;
28086;SDS011;15392;48.912;8.380;2023-12-14T04:01:42;0.70;;;0.70;;
28086;SDS011;15392;48.912;8.380;2023-12-14T04:04:28;0.45;;;0.45;;
28086;SDS011;15392;48.912;8.380;2023-12-14T04:07:14;0.63;;;0.63;;
28086;SDS011;15392;48.912;8.380;2023-12-14T04:10:00;0.63;;;0.63;;
28086;SDS011;15392;48.912;8.380;2023-12-14T04:12:46;0.70;;;0.70;;
28086;SDS011;15392;48.912;8.380;2023-12-14T04:15:32;0.60;;;0.60;;
28086;SDS011;15392;48.912;8.380;2023-12-14T04:18:18;0.70;;;0.70;;
28086;SDS011;15392;48.912;8.380;2023-12-14T04:21:04;0.70;;;0.70;;
28086;SDS011;15392;48.912;8.380;2023-12-14T04:23:50;0.77;;;0.77;;
28086;SDS011;15392;48.912;8.380;2023-12-14T04:26:36;0.50;;;0.50;;
28086;SDS011;15392;48.912;8.380;2023-12-14T04:29:22;0.80;;;0.80;;
28086;SDS011;15392;48.912;8.380;2023-12-14T04:32:08;0.60;;;0.60;;
28086;SDS011;15392;48.912;8.380;2023-12-14T04:34:55;0.88;;;0.88;;
28086;SDS011;15392;48.912;8.380;2023-12-14T04:37:41;0.82;;;0.82;;
28086;SDS011;15392;48.912;8.380;2023-12-14T04:40:27;0.90;;;0.90;;
28086;SDS011;15392;48.912;8.380;2023-12-14T04:43:13;0.90;;;0.90;;
28086;SDS011;15392;48.912;8.380;2023-12-14T04:45:59;0.75;;;0.75;;
28086;SDS011;15392;48.912;8.380;2023-12-14T04:48:45;0.90;;;0.90;;
28086;SDS011;15392;48.912;8.380;2023-12-14T04:51:31;0.73;;;0.73;;
28086;SDS011;15392;48.912;8.380;2023-12-14T04:54:17;0.80;;;0.80;;
28086;SDS011;15392;48.912;8.380;2023-12-14T04:57:03;0.65;;;0.65;;
28086;SDS011;15392;48.912;8.380;2023-12-14T04:59:50;0.73;;;0.73;;
28086;SDS011;15392;48.912;8.380;2023-12-14T05:02:36;0.80;;;0.80;;
28086;SDS011;15392;48.912;8.380;2023-12-14T05:05:22;0.63;;;0.63;;
28086;SDS011;15392;48.912;8.380;2023-12-14T05:08:08;0.70;;;0.70;;
28086;SDS011;15392;48.912;8.380;2023-12-14T05:10:54;0.80;;;0.80;;
28086;SDS011;15392;48.912;8.380;2023-12-14T05:13:40;0.73;;;0.73;;
28086;SDS011;15392;48.912;8.380;2023-12-14T05:16:26;0.85;;;0.85;;
28086;SDS011;15392;48.912;8.380;2023-12-14T05:19:12;0.80;;;0.80;;
28086;SDS011;15392;48.912;8.380;2023-12-14T05:21:58;0.90;;;0.90;;
28086;SDS011;15392;48.912;8.380;2023-12-14T05:24:46;0.80;;;0.80;;
28086;SDS011;15392;48.912;8.380;2023-12-14T05:27:32;0.93;;;0.93;;
28086;SDS011;15392;48.912;8.380;2023-12-14T05:30:21;1.13;;;1.13;;
28086;SDS011;15392;48.912;8.380;2023-12-14T05:33:07;1.10;;;1.10;;
28086;SDS011;15392;48.912;8.380;2023-12-14T05:35:54;1.00;;;1.00;;
28086;SDS011;15392;48.912;8.380;2023-12-14T05:38:40;0.90;;;0.90;;
28086;SDS011;15392;48.912;8.380;2023-12-14T05:41:27;1.10;;;1.10;;
28086;SDS011;15392;48.912;8.380;2023-12-14T05:44:15;1.27;;;1.27;;
28086;SDS011;15392;48.912;8.380;2023-12-14T05:47:01;1.35;;;1.35;;
28086;SDS011;15392;48.912;8.380;2023-12-14T05:49:47;1.20;;;1.20;;
28086;SDS011;15392;48.912;8.380;2023-12-14T05:52:33;1.30;;;1.30;;
28086;SDS011;15392;48.912;8.380;2023-12-14T05:55:19;1.20;;;1.20;;
28086;SDS011;15392;48.912;8.380;2023-12-14T05:58:07;1.50;;;1.50;;
28086;SDS011;15392;48.912;8.380;2023-12-14T06:00:53;1.38;;;1.38;;
28086;SDS011;15392;48.912;8.380;2023-12-14T06:03:39;1.48;;;1.48;;
28086;SDS011;15392;48.912;8.380;2023-12-14T06:06:25;1.40;;;1.40;;
28086;SDS011;15392;48.912;8.380;2023-12-14T06:09:11;1.60;;;1.60;;
28086;SDS011;15392;48.912;8.380;2023-12-14T06:11:57;1.48;;;1.48;;
28086;SDS011;15392;48.912;8.380;2023-12-14T06:14:43;1.63;;;1.63;;
28086;SDS011;15392;48.912;8.380;2023-12-14T06:17:30;3.22;;;3.13;;
28086;SDS011;15392;48.912;8.380;2023-12-14T06:20:17;3.08;;;2.97;;
28086;SDS011;15392;48.912;8.380;2023-12-14T06:23:03;3.20;;;3.00;;
28086;SDS011;15392;48.912;8.380;2023-12-14T06:25:49;2.63;;;2.53;;
28086;SDS011;15392;48.912;8.380;2023-12-14T06:28:35;3.08;;;2.97;;
28086;SDS011;15392;48.912;8.380;2023-12-14T06:31:21;3.00;;;2.80;;
28086;SDS011;15392;48.912;8.380;2023-12-14T06:34:07;6.13;;;5.72;;
28086;SDS011;15392;48.912;8.380;2023-12-14T06:36:53;6.10;;;5.80;;
28086;SDS011;15392;48.912;8.380;2023-12-14T06:39:42;5.15;;;4.95;;
28086;SDS011;15392;48.912;8.380;2023-12-14T06:42:28;4.50;;;4.30;;
28086;SDS011;15392;48.912;8.380;2023-12-14T06:45:15;8.18;;;7.68;;
28086;SDS011;15392;48.912;8.380;2023-12-14T06:48:01;8.10;;;7.68;;
28086;SDS011;15392;48.912;8.380;2023-12-14T06:50:48;6.63;;;6.32;;
28086;SDS011;15392;48.912;8.380;2023-12-14T06:53:35;7.00;;;6.60;;
28086;SDS011;15392;48.912;8.380;2023-12-14T06:56:22;4.95;;;4.75;;
28086;SDS011;15392;48.912;8.380;2023-12-14T06:59:08;4.32;;;4.13;;
28086;SDS011;15392;48.912;8.380;2023-12-14T07:01:54;3.40;;;3.30;;
28086;SDS011;15392;48.912;8.380;2023-12-14T07:04:41;2.72;;;2.63;;
28086;SDS011;15392;48.912;8.380;2023-12-14T07:07:27;2.92;;;2.83;;
28086;SDS011;15392;48.912;8.380;2023-12-14T07:10:13;1.92;;;1.92;;
28086;SDS011;15392;48.912;8.380;2023-12-14T07:12:59;1.98;;;1.92;;
28086;SDS011;15392;48.912;8.380;2023-12-14T07:15:45;1.77;;;1.77;;
28086;SDS011;15392;48.912;8.380;2023-12-14T07:18:31;2.17;;;2.08;;
28086;SDS011;15392;48.912;8.380;2023-12-14T07:21:17;2.17;;;2.08;;
28086;SDS011;15392;48.912;8.380;2023-12-14T07:24:03;1.88;;;1.83;;
28086;SDS011;15392;48.912;8.380;2023-12-14T07:26:50;1.88;;;1.83;;
28086;SDS011;15392;48.912;8.380;2023-12-14T07:29:36;1.85;;;1.85;;
28086;SDS011;15392;48.912;8.380;2023-12-14T07:32:22;2.00;;;2.00;;
28086;SDS011;15392;48.912;8.380;2023-12-14T07:35:08;2.00;;;1.90;;
28086;SDS011;15392;48.912;8.380;2023-12-14T07:37:55;2.33;;;2.22;;
28086;SDS011;15392;48.912;8.380;2023-12-14T07:40:41;2.30;;;2.20;;
28086;SDS011;15392;48.912;8.380;2023-12-14T07:43:27;2.28;;;2.20;;
28086;SDS011;15392;48.912;8.380;2023-12-14T07:46:14;2.28;;;2.17;;
28086;SDS011;15392;48.912;8.380;2023-12-14T07:49:00;1.95;;;1.90;;
28086;SDS011;15392;48.912;8.380;2023-12-14T07:51:46;2.20;;;2.10;;
28086;SDS011;15392;48.912;8.380;2023-12-14T07:54:32;1.63;;;1.63;;
28086;SDS011;15392;48.912;8.380;2023-12-14T07:57:18;1.73;;;1.73;;
28086;SDS011;15392;48.912;8.380;2023-12-14T08:00:04;2.00;;;1.92;;
28086;SDS011;15392;48.912;8.380;2023-12-14T08:02:53;2.08;;;1.98;;
28086;SDS011;15392;48.912;8.380;2023-12-14T08:05:39;2.00;;;1.90;;
28086;SDS011;15392;48.912;8.380;2023-12-14T08:08:25;1.85;;;1.85;;
28086;SDS011;15392;48.912;8.380;2023-12-14T08:11:11;2.05;;;1.95;;
28086;SDS011;15392;48.912;8.380;2023-12-14T08:13:57;1.67;;;1.67;;
28086;SDS011;15392;48.912;8.380;2023-12-14T08:16:43;1.88;;;1.77;;
28086;SDS011;15392;48.912;8.380;2023-12-14T08:19:29;1.60;;;1.60;;
28086;SDS011;15392;48.912;8.380;2023-12-14T08:22:16;1.92;;;1.92;;
28086;SDS011;15392;48.912;8.380;2023-12-14T08:25:02;1.70;;;1.70;;
28086;SDS011;15392;48.912;8.380;2023-12-14T08:27:49;1.83;;;1.75;;
28086;SDS011;15392;48.912;8.380;2023-12-14T08:30:35;1.75;;;1.75;;
28086;SDS011;15392;48.912;8.380;2023-12-14T08:33:24;1.90;;;1.90;;
28086;SDS011;15392;48.912;8.380;2023-12-14T08:36:10;1.88;;;1.77;;
28086;SDS011;15392;48.912;8.380;2023-12-14T08:39:00;1.90;;;1.80;;
28086;SDS011;15392;48.912;8.380;2023-12-14T08:41:46;2.00;;;1.90;;
28086;SDS011;15392;48.912;8.380;2023-12-14T08:44:33;1.58;;;1.48;;
28086;SDS011;15392;48.912;8.380;2023-12-14T08:47:19;1.70;;;1.70;;
28086;SDS011;15392;48.912;8.380;2023-12-14T08:50:06;1.77;;;1.77;;
28086;SDS011;15392;48.912;8.380;2023-12-14T08:52:53;1.58;;;1.58;;
28086;SDS011;15392;48.912;8.380;2023-12-14T08:55:39;1.40;;;1.40;;
28086;SDS011;15392;48.912;8.380;2023-12-14T08:58:25;1.30;;;1.30;;
28086;SDS011;15392;48.912;8.380;2023-12-14T09:01:11;1.45;;;1.45;;
28086;SDS011;15392;48.912;8.380;2023-12-14T09:04:05;1.42;;;1.42;;
28086;SDS011;15392;48.912;8.380;2023-12-14T09:06:51;1.20;;;1.20;;
28086;SDS011;15392;48.912;8.380;2023-12-14T09:09:38;1.25;;;1.25;;
28086;SDS011;15392;48.912;8.380;2023-12-14T09:12:24;1.20;;;1.20;;
28086;SDS011;15392;48.912;8.380;2023-12-14T09:15:10;1.27;;;1.27;;
28086;SDS011;15392;48.912;8.380;2023-12-14T09:17:56;1.42;;;1.42;;
28086;SDS011;15392;48.912;8.380;2023-12-14T09:20:42;1.70;;;1.70;;
28086;SDS011;15392;48.912;8.380;2023-12-14T09:23:28;1.70;;;1.60;;
28086;SDS011;15392;48.912;8.380;2023-12-14T09:26:14;1.27;;;1.27;;
28086;SDS011;15392;48.912;8.380;2023-12-14T09:29:00;1.48;;;1.48;;
28086;SDS011;15392;48.912;8.380;2023-12-14T09:31:47;1.30;;;1.30;;
28086;SDS011;15392;48.912;8.380;2023-12-14T09:34:33;1.50;;;1.50;;
28086;SDS011;15392;48.912;8.380;2023-12-14T09:37:20;1.38;;;1.38;;
28086;SDS011;15392;48.912;8.380;2023-12-14T09:40:07;1.60;;;1.50;;
28086;SDS011;15392;48.912;8.380;2023-12-14T09:42:54;1.27;;;1.27;;
28086;SDS011;15392;48.912;8.380;2023-12-14T09:45:41;1.25;;;1.25;;
28086;SDS011;15392;48.912;8.380;2023-12-14T09:48:30;1.30;;;1.30;;
28086;SDS011;15392;48.912;8.380;2023-12-14T09:51:17;1.48;;;1.45;;
28086;SDS011;15392;48.912;8.380;2023-12-14T09:54:03;1.65;;;1.65;;
28086;SDS011;15392;48.912;8.380;2023-12-14T09:56:50;1.33;;;1.33;;
28086;SDS011;15392;48.912;8.380;2023-12-14T09:59:38;1.38;;;1.38;;
28086;SDS011;15392;48.912;8.380;2023-12-14T10:02:26;1.15;;;1.15;;
28086;SDS011;15392;48.912;8.380;2023-12-14T10:05:12;1.30;;;1.30;;
28086;SDS011;15392;48.912;8.380;2023-12-14T10:07:58;1.40;;;1.40;;
28086;SDS011;15392;48.912;8.380;2023-12-14T10:10:46;1.35;;;1.35;;
28086;SDS011;15392;48.912;8.380;2023-12-14T10:13:37;1.20;;;1.20;;
28086;SDS011;15392;48.912;8.380;2023-12-14T10:16:33;2.45;;;1.35;;
28086;SDS011;15392;48.912;8.380;2023-12-14T10:19:19;1.30;;;1.30;;
28086;SDS011;15392;48.912;8.380;2023-12-14T10:22:06;1.30;;;1.30;;
28086;SDS011;15392;48.912;8.380;2023-12-14T10:24:53;1.42;;;1.33;;
28086;SDS011;15392;48.912;8.380;2023-12-14T10:27:40;1.35;;;1.35;;
28086;SDS011;15392;48.912;8.380;2023-12-14T10:30:27;1.48;;;1.38;;
28086;SDS011;15392;48.912;8.380;2023-12-14T10:33:14;1.45;;;1.45;;
28086;SDS011;15392;48.912;8.380;2023-12-14T10:36:01;1.30;;;1.30;;
28086;SDS011;15392;48.912;8.380;2023-12-14T10:38:48;1.50;;;1.50;;
28086;SDS011;15392;48.912;8.380;2023-12-14T10:41:38;1.15;;;1.15;;
28086;SDS011;15392;48.912;8.380;2023-12-14T10:44:25;1.70;;;1.60;;
28086;SDS011;15392;48.912;8.380;2023-12-14T10:50:01;1.02;;;1.02;;
28086;SDS011;15392;48.912;8.380;2023-12-14T10:52:49;1.60;;;1.50;;
28086;SDS011;15392;48.912;8.380;2023-12-14T10:55:40;1.10;;;1.10;;
28086;SDS011;15392;48.912;8.380;2023-12-14T10:58:43;1.30;;;1.30;;
28086;SDS011;15392;48.912;8.380;2023-12-14T11:01:39;1.10;;;1.10;;
28086;SDS011;15392;48.912;8.380;2023-12-14T11:04:28;1.30;;;1.30;;
28086;SDS011;15392;48.912;8.380;2023-12-14T11:07:14;1.30;;;1.30;;
28086;SDS011;15392;48.912;8.380;2023-12-14T11:10:02;1.38;;;1.38;;
28086;SDS011;15392;48.912;8.380;2023-12-14T11:15:52;1.25;;;1.25;;
28086;SDS011;15392;48.912;8.380;2023-12-14T11:18:38;1.90;;;1.80;;
28086;SDS011;15392;48.912;8.380;2023-12-14T11:21:25;1.48;;;1.40;;
28086;SDS011;15392;48.912;8.380;2023-12-14T11:24:11;1.60;;;1.60;;
28086;SDS011;15392;48.912;8.380;2023-12-14T11:26:58;1.23;;;1.23;;
28086;SDS011;15392;48.912;8.380;2023-12-14T11:29:44;1.02;;;1.02;;
28086;SDS011;15392;48.912;8.380;2023-12-14T11:32:31;1.33;;;1.33;;
28086;SDS011;15392;48.912;8.380;2023-12-14T11:35:17;1.63;;;1.60;;
28086;SDS011;15392;48.912;8.380;2023-12-14T11:38:04;1.27;;;1.27;;
28086;SDS011;15392;48.912;8.380;2023-12-14T11:40:55;1.42;;;1.42;;
28086;SDS011;15392;48.912;8.380;2023-12-14T11:43:42;1.60;;;1.60;;
28086;SDS011;15392;48.912;8.380;2023-12-14T11:46:29;1.40;;;1.40;;
28086;SDS011;15392;48.912;8.380;2023-12-14T11:49:16;1.55;;;1.55;;
28086;SDS011;15392;48.912;8.380;2023-12-14T11:52:02;1.25;;;1.25;;
28086;SDS011;15392;48.912;8.380;2023-12-14T11:54:50;1.30;;;1.30;;
28086;SDS011;15392;48.912;8.380;2023-12-14T11:57:36;1.15;;;1.15;;
28086;SDS011;15392;48.912;8.380;2023-12-14T12:00:25;1.35;;;1.35;;
28086;SDS011;15392;48.912;8.380;2023-12-14T12:03:15;1.40;;;1.40;;
28086;SDS011;15392;48.912;8.380;2023-12-14T12:06:06;1.58;;;1.58;;
28086;SDS011;15392;48.912;8.380;2023-12-14T12:08:52;1.27;;;1.27;;
28086;SDS011;15392;48.912;8.380;2023-12-14T12:11:39;1.38;;;1.38;;
28086;SDS011;15392;48.912;8.380;2023-12-14T12:14:25;1.63;;;1.50;;
28086;SDS011;15392;48.912;8.380;2023-12-14T12:17:13;1.40;;;1.40;;
28086;SDS011;15392;48.912;8.380;2023-12-14T12:20:00;1.80;;;1.70;;
28086;SDS011;15392;48.912;8.380;2023-12-14T12:22:46;1.60;;;1.60;;
28086;SDS011;15392;48.912;8.380;2023-12-14T12:25:33;1.65;;;1.65;;
28086;SDS011;15392;48.912;8.380;2023-12-14T12:28:19;1.40;;;1.40;;
28086;SDS011;15392;48.912;8.380;2023-12-14T12:31:05;1.35;;;1.35;;
28086;SDS011;15392;48.912;8.380;2023-12-14T12:33:51;1.35;;;1.35;;
28086;SDS011;15392;48.912;8.380;2023-12-14T12:36:38;1.50;;;1.50;;
28086;SDS011;15392;48.912;8.380;2023-12-14T12:39:24;1.17;;;1.17;;
28086;SDS011;15392;48.912;8.380;2023-12-14T12:42:10;1.40;;;1.40;;
28086;SDS011;15392;48.912;8.380;2023-12-14T12:44:56;1.83;;;1.73;;
28086;SDS011;15392;48.912;8.380;2023-12-14T12:47:43;2.05;;;1.95;;
28086;SDS011;15392;48.912;8.380;2023-12-14T12:50:30;1.95;;;1.85;;
28086;SDS011;15392;48.912;8.380;2023-12-14T12:53:17;1.85;;;1.75;;
28086;SDS011;15392;48.912;8.380;2023-12-14T12:56:03;2.20;;;2.10;;
28086;SDS011;15392;48.912;8.380;2023-12-14T12:58:50;1.73;;;1.73;;
28086;SDS011;15392;48.912;8.380;2023-12-14T13:01:39;1.50;;;1.50;;
28086;SDS011;15392;48.912;8.380;2023-12-14T13:04:25;1.80;;;1.70;;
28086;SDS011;15392;48.912;8.380;2023-12-14T13:07:11;1.70;;;1.60;;
28086;SDS011;15392;48.912;8.380;2023-12-14T13:09:58;2.00;;;1.90;;
28086;SDS011;15392;48.912;8.380;2023-12-14T13:12:44;1.58;;;1.48;;
28086;SDS011;15392;48.912;8.380;2023-12-14T13:15:30;1.52;;;1.52;;
28086;SDS011;15392;48.912;8.380;2023-12-14T13:18:16;1.60;;;1.60;;
28086;SDS011;15392;48.912;8.380;2023-12-14T13:21:02;1.50;;;1.50;;
28086;SDS011;15392;48.912;8.380;2023-12-14T13:23:48;1.40;;;1.40;;
28086;SDS011;15392;48.912;8.380;2023-12-14T13:26:36;1.65;;;1.63;;
28086;SDS011;15392;48.912;8.380;2023-12-14T13:29:22;1.58;;;1.48;;
28086;SDS011;15392;48.912;8.380;2023-12-14T13:32:08;1.85;;;1.75;;
28086;SDS011;15392;48.912;8.380;2023-12-14T13:34:55;1.42;;;1.42;;
28086;SDS011;15392;48.912;8.380;2023-12-14T13:37:41;1.58;;;1.48;;
28086;SDS011;15392;48.912;8.380;2023-12-14T13:40:27;1.30;;;1.30;;
28086;SDS011;15392;48.912;8.380;2023-12-14T13:43:13;1.45;;;1.45;;
28086;SDS011;15392;48.912;8.380;2023-12-14T13:45:59;1.65;;;1.65;;
28086;SDS011;15392;48.912;8.380;2023-12-14T13:48:45;1.95;;;1.85;;
28086;SDS011;15392;48.912;8.380;2023-12-14T13:51:31;1.27;;;1.27;;
28086;SDS011;15392;48.912;8.380;2023-12-14T13:54:19;1.42;;;1.42;;
28086;SDS011;15392;48.912;8.380;2023-12-14T13:57:05;1.50;;;1.50;;
28086;SDS011;15392;48.912;8.380;2023-12-14T13:59:51;1.35;;;1.35;;
28086;SDS011;15392;48.912;8.380;2023-12-14T14:02:37;1.60;;;1.60;;
28086;SDS011;15392;48.912;8.380;2023-12-14T14:05:23;1.63;;;1.63;;
28086;SDS011;15392;48.912;8.380;2023-12-14T14:08:09;2.60;;;2.50;;
28086;SDS011;15392;48.912;8.380;2023-12-14T14:10:58;2.22;;;2.13;;
28086;SDS011;15392;48.912;8.380;2023-12-14T14:13:45;1.75;;;1.75;;
28086;SDS011;15392;48.912;8.380;2023-12-14T14:16:31;1.48;;;1.48;;
28086;SDS011;15392;48.912;8.380;2023-12-14T14:19:17;1.50;;;1.50;;
28086;SDS011;15392;48.912;8.380;2023-12-14T14:22:03;1.42;;;1.42;;
28086;SDS011;15392;48.912;8.380;2023-12-14T14:24:50;1.40;;;1.40;;
28086;SDS011;15392;48.912;8.380;2023-12-14T14:27:36;1.45;;;1.45;;
28086;SDS011;15392;48.912;8.380;2023-12-14T14:30:23;1.85;;;1.80;;
28086;SDS011;15392;48.912;8.380;2023-12-14T14:33:09;1.40;;;1.40;;
28086;SDS011;15392;48.912;8.380;2023-12-14T14:35:55;1.40;;;1.40;;
28086;SDS011;15392;48.912;8.380;2023-12-14T14:38:41;1.30;;;1.30;;
28086;SDS011;15392;48.912;8.380;2023-12-14T14:41:28;1.30;;;1.30;;
28086;SDS011;15392;48.912;8.380;2023-12-14T14:44:14;1.17;;;1.17;;
28086;SDS011;15392;48.912;8.380;2023-12-14T14:47:00;1.30;;;1.30;;
28086;SDS011;15392;48.912;8.380;2023-12-14T14:49:47;1.40;;;1.40;;
28086;SDS011;15392;48.912;8.380;2023-12-14T14:52:36;1.23;;;1.23;;
28086;SDS011;15392;48.912;8.380;2023-12-14T14:55:22;1.48;;;1.48;;
28086;SDS011;15392;48.912;8.380;2023-12-14T14:58:08;1.55;;;1.55;;
28086;SDS011;15392;48.912;8.380;2023-12-14T15:00:57;1.50;;;1.50;;
28086;SDS011;15392;48.912;8.380;2023-12-14T15:03:43;1.75;;;1.70;;
28086;SDS011;15392;48.912;8.380;2023-12-14T15:06:29;1.52;;;1.45;;
28086;SDS011;15392;48.912;8.380;2023-12-14T15:09:15;5.38;;;5.00;;
28086;SDS011;15392;48.912;8.380;2023-12-14T15:12:01;9.57;;;8.75;;
28086;SDS011;15392;48.912;8.380;2023-12-14T15:14:47;12.75;;;11.48;;
28086;SDS011;15392;48.912;8.380;2023-12-14T15:17:33;20.33;;;18.23;;
28086;SDS011;15392;48.912;8.380;2023-12-14T15:20:20;15.25;;;13.85;;
28086;SDS011;15392;48.912;8.380;2023-12-14T15:23:06;11.52;;;10.60;;
28086;SDS011;15392;48.912;8.380;2023-12-14T15:25:53;6.82;;;6.43;;
28086;SDS011;15392;48.912;8.380;2023-12-14T15:28:39;5.03;;;4.82;;
28086;SDS011;15392;48.912;8.380;2023-12-14T15:31:26;4.05;;;3.85;;
28086;SDS011;15392;48.912;8.380;2023-12-14T15:34:12;3.10;;;3.00;;
28086;SDS011;15392;48.912;8.380;2023-12-14T15:36:58;2.75;;;2.65;;
28086;SDS011;15392;48.912;8.380;2023-12-14T15:39:44;2.28;;;2.17;;
28086;SDS011;15392;48.912;8.380;2023-12-14T15:42:33;2.03;;;1.92;;
28086;SDS011;15392;48.912;8.380;2023-12-14T15:45:20;1.90;;;1.83;;
28086;SDS011;15392;48.912;8.380;2023-12-14T15:48:06;1.90;;;1.80;;
28086;SDS011;15392;48.912;8.380;2023-12-14T15:50:52;1.65;;;1.55;;
28086;SDS011;15392;48.912;8.380;2023-12-14T15:53:38;1.67;;;1.67;;
28086;SDS011;15392;48.912;8.380;2023-12-14T15:56:25;1.70;;;1.60;;
28086;SDS011;15392;48.912;8.380;2023-12-14T15:59:13;1.70;;;1.70;;
28086;SDS011;15392;48.912;8.380;2023-12-14T16:01:59;1.80;;;1.80;;
28086;SDS011;15392;48.912;8.380;2023-12-14T16:04:49;1.90;;;1.90;;
28086;SDS011;15392;48.912;8.380;2023-12-14T16:07:35;1.42;;;1.42;;
28086;SDS011;15392;48.912;8.380;2023-12-14T16:10:22;2.17;;;1.98;;
28086;SDS011;15392;48.912;8.380;2023-12-14T16:13:08;1.98;;;1.88;;
28086;SDS011;15392;48.912;8.380;2023-12-14T16:15:54;1.67;;;1.67;;
28086;SDS011;15392;48.912;8.380;2023-12-14T16:18:40;2.15;;;2.05;;
28086;SDS011;15392;48.912;8.380;2023-12-14T16:21:28;1.58;;;1.58;;
28086;SDS011;15392;48.912;8.380;2023-12-14T16:24:21;1.90;;;1.80;;
28086;SDS011;15392;48.912;8.380;2023-12-14T16:27:09;1.75;;;1.65;;
28086;SDS011;15392;48.912;8.380;2023-12-14T16:29:55;1.92;;;1.83;;
28086;SDS011;15392;48.912;8.380;2023-12-14T16:32:41;1.90;;;1.73;;
28086;SDS011;15392;48.912;8.380;2023-12-14T16:35:27;2.00;;;1.90;;
28086;SDS011;15392;48.912;8.380;2023-12-14T16:38:15;2.30;;;2.20;;
28086;SDS011;15392;48.912;8.380;2023-12-14T16:41:01;2.13;;;2.03;;
28086;SDS011;15392;48.912;8.380;2023-12-14T16:43:47;2.40;;;2.30;;
28086;SDS011;15392;48.912;8.380;2023-12-14T16:46:33;2.00;;;1.90;;
28086;SDS011;15392;48.912;8.380;2023-12-14T16:49:19;1.80;;;1.80;;
28086;SDS011;15392;48.912;8.380;2023-12-14T16:52:05;1.38;;;1.38;;